createdAt,value
2019-03-21T00:01:42.529Z,53.30
2019-03-21T00:04:14.331Z,53.00
2019-03-21T00:06:44.996Z,53.20
2019-03-21T00:09:18.375Z,53.80
2019-03-21T00:12:02.118Z,54.00
2019-03-21T00:15:13.945Z,54.20
2019-03-21T00:17:51.264Z,54.10
2019-03-21T00:20:21.610Z,54.20
2019-03-21T00:22:51.690Z,54.20
2019-03-21T00:25:23.075Z,54.20
2019-03-21T00:27:54.811Z,54.60
2019-03-21T00:30:25.865Z,54.90
2019-03-21T00:32:57.016Z,55.00
2019-03-21T00:35:27.757Z,55.60
2019-03-21T00:37:58.043Z,55.90
2019-03-21T00:40:30.218Z,55.40
2019-03-21T00:43:02.334Z,55.70
2019-03-21T00:45:32.580Z,55.70
2019-03-21T00:48:04.890Z,55.60
2019-03-21T00:50:35.748Z,55.90
2019-03-21T00:53:05.708Z,56.20
2019-03-21T00:55:38.230Z,56.60
2019-03-21T00:58:09.614Z,56.20
2019-03-21T01:00:43.992Z,55.90
2019-03-21T01:03:14.415Z,56.20
2019-03-21T01:05:44.390Z,56.30
2019-03-21T01:08:14.282Z,56.20
2019-03-21T01:10:44.716Z,56.60
2019-03-21T01:13:15.163Z,57.20
2019-03-21T01:15:45.855Z,57.60
2019-03-21T01:18:16.155Z,57.70
2019-03-21T01:20:47.145Z,58.00
2019-03-21T01:23:17.531Z,58.20
2019-03-21T01:25:49.805Z,58.40
2019-03-21T01:28:19.785Z,58.50
2019-03-21T01:30:49.455Z,58.90
2019-03-21T01:33:19.411Z,59.40
2019-03-21T01:35:49.998Z,59.40
2019-03-21T01:38:19.954Z,59.30
2019-03-21T01:40:51.468Z,59.00
2019-03-21T01:43:21.483Z,58.40
2019-03-21T01:45:55.017Z,58.30
2019-03-21T01:48:26.222Z,58.60
2019-03-21T01:50:56.656Z,59.00
2019-03-21T01:53:26.341Z,58.60
2019-03-21T01:55:56.292Z,58.40
2019-03-21T01:58:28.699Z,58.40
2019-03-21T02:00:58.676Z,58.30
2019-03-21T02:03:29.122Z,58.60
2019-03-21T02:05:58.774Z,58.90
2019-03-21T02:08:28.544Z,59.20
2019-03-21T02:10:58.829Z,59.70
2019-03-21T02:13:28.913Z,60.30
2019-03-21T02:15:59.366Z,61.30
2019-03-21T02:18:29.771Z,62.20
2019-03-21T02:21:02.724Z,62.60
2019-03-21T02:23:33.787Z,62.90
2019-03-21T02:26:03.615Z,63.60
2019-03-21T02:28:35.452Z,64.00
2019-03-21T02:31:05.209Z,64.00
2019-03-21T02:33:34.832Z,64.60
2019-03-21T02:36:04.896Z,65.00
2019-03-21T02:38:34.923Z,65.10
2019-03-21T02:41:06.453Z,65.30
2019-03-21T02:43:36.630Z,65.60
2019-03-21T02:46:07.201Z,65.90
2019-03-21T02:48:36.910Z,66.40
2019-03-21T02:51:07.442Z,66.30
2019-03-21T02:53:37.834Z,66.60
2019-03-21T02:56:09.721Z,67.20
2019-03-21T02:58:39.978Z,68.20
2019-03-21T03:01:09.896Z,68.60
2019-03-21T03:03:39.503Z,68.50
2019-03-21T03:06:10.531Z,68.50
2019-03-21T03:08:40.100Z,68.60
2019-03-21T03:11:10.987Z,68.40
2019-03-21T03:13:44.267Z,67.80
2019-03-21T03:16:13.976Z,67.20
2019-03-21T03:18:43.999Z,66.00
2019-03-21T03:21:13.626Z,66.20
2019-03-21T03:23:43.362Z,65.90
2019-03-21T03:26:13.607Z,65.30
2019-03-21T03:28:43.374Z,65.30
2019-03-21T03:31:13.355Z,65.80
2019-03-21T03:33:45.773Z,66.60
2019-03-21T03:36:16.285Z,66.60
2019-03-21T03:38:46.157Z,66.80
2019-03-21T03:41:16.253Z,67.80
2019-03-21T03:43:46.615Z,68.50
2019-03-21T03:46:16.972Z,68.70
2019-03-21T03:48:48.310Z,68.70
2019-03-21T03:51:18.458Z,68.60
2019-03-21T03:53:48.451Z,68.00
2019-03-21T03:56:18.489Z,66.70
2019-03-21T03:58:50.887Z,66.60
2019-03-21T04:01:20.787Z,66.70
2019-03-21T04:03:50.541Z,67.50
2019-03-21T04:06:20.746Z,68.50
2019-03-21T04:08:50.771Z,68.50
2019-03-21T04:11:20.880Z,68.00
2019-03-21T04:13:51.339Z,68.00
2019-03-21T04:16:21.525Z,68.30
2019-03-21T04:18:51.571Z,68.70
2019-03-21T04:21:30.333Z,68.90
2019-03-21T04:24:00.330Z,68.80
2019-03-21T04:26:32.493Z,67.70
2019-03-21T04:29:03.084Z,67.20
2019-03-21T04:31:33.149Z,67.00
2019-03-21T04:34:04.638Z,66.80
2019-03-21T04:36:35.972Z,66.80
2019-03-21T04:39:09.587Z,66.80
2019-03-21T04:41:43.442Z,67.30
2019-03-21T04:44:16.163Z,67.60
2019-03-21T04:46:46.533Z,67.70
2019-03-21T04:49:18.213Z,67.30
2019-03-21T04:51:48.154Z,67.50
2019-03-21T04:54:18.100Z,67.10
2019-03-21T04:56:48.111Z,67.00
2019-03-21T04:59:19.316Z,66.70
2019-03-21T05:01:50.312Z,66.10
2019-03-21T05:04:20.496Z,66.60
2019-03-21T05:06:50.535Z,67.10
2019-03-21T05:09:20.944Z,66.70
2019-03-21T05:11:55.755Z,66.60
2019-03-21T05:14:26.495Z,66.20
2019-03-21T05:16:57.526Z,66.20
2019-03-21T05:19:27.732Z,66.00
2019-03-21T05:21:57.424Z,66.30
2019-03-21T05:24:28.209Z,66.80
2019-03-21T05:26:57.867Z,66.90
2019-03-21T05:29:27.587Z,66.70
2019-03-21T05:31:59.374Z,66.70
2019-03-21T05:34:29.827Z,66.70
2019-03-21T05:37:00.941Z,66.30
2019-03-21T05:39:30.844Z,66.60
2019-03-21T05:42:01.336Z,66.20
2019-03-21T05:44:35.242Z,66.10
2019-03-21T05:47:04.896Z,65.80
2019-03-21T05:49:35.167Z,65.90
2019-03-21T05:52:05.848Z,65.50
2019-03-21T05:54:36.885Z,65.40
2019-03-21T05:57:06.563Z,65.30
2019-03-21T05:59:36.548Z,65.40
2019-03-21T06:02:08.110Z,64.80
2019-03-21T06:04:38.328Z,64.90
2019-03-21T06:07:33.077Z,64.80
2019-03-21T06:10:05.343Z,65.00
2019-03-21T06:12:42.283Z,65.30
2019-03-21T06:15:13.729Z,65.20
2019-03-21T06:17:44.555Z,65.50
2019-03-21T06:21:01.769Z,65.60
2019-03-21T06:24:28.359Z,65.10
2019-03-21T06:27:28.338Z,65.80
2019-03-21T06:30:35.949Z,64.90
2019-03-21T06:33:45.765Z,65.70
2019-03-21T06:43:50.905Z,66.70
2019-03-21T06:46:21.345Z,65.50
2019-03-21T06:48:51.960Z,65.30
2019-03-21T06:51:23.566Z,65.20
2019-03-21T06:54:12.038Z,65.20
2019-03-21T06:56:42.241Z,65.30
2019-03-21T06:59:13.919Z,65.30
2019-03-21T07:02:11.973Z,65.80
2019-03-21T07:04:45.140Z,65.50
2019-03-21T07:07:16.268Z,65.20
2019-03-21T07:09:47.344Z,65.20
2019-03-21T07:12:17.327Z,65.10
2019-03-21T07:14:47.830Z,64.30
2019-03-21T07:17:18.091Z,63.50
2019-03-21T07:19:51.496Z,62.70
2019-03-21T07:22:22.104Z,62.70
2019-03-21T07:24:51.771Z,61.90
2019-03-21T07:27:26.578Z,61.20
2019-03-21T07:29:58.895Z,60.50
2019-03-21T07:32:33.602Z,60.20
2019-03-21T07:35:03.267Z,60.10
2019-03-21T07:37:33.991Z,60.00
2019-03-21T07:40:03.975Z,60.00
2019-03-21T07:42:34.036Z,59.80
2019-03-21T07:45:03.965Z,58.70
2019-03-21T07:47:33.888Z,57.60
2019-03-21T07:50:02.675Z,56.80
2019-03-21T07:52:33.627Z,55.00
2019-03-21T07:55:04.175Z,53.00
2019-03-21T07:57:36.535Z,51.90
2019-03-21T08:00:09.794Z,50.50
2019-03-21T08:02:42.265Z,47.70
2019-03-21T08:05:12.700Z,45.40
2019-03-21T08:07:43.326Z,44.50
2019-03-21T08:10:13.964Z,43.20
2019-03-21T08:12:46.565Z,42.50
2019-03-21T08:15:18.049Z,43.00
2019-03-21T08:17:48.709Z,42.20
2019-03-21T08:20:18.683Z,41.60
2019-03-21T08:22:48.946Z,41.30
2019-03-21T08:25:18.783Z,40.00
2019-03-21T08:27:51.696Z,39.70
2019-03-21T08:30:37.942Z,42.00
2019-03-21T08:33:07.776Z,41.40
2019-03-21T08:35:38.434Z,40.70
2019-03-21T08:38:08.526Z,37.70
2019-03-21T08:40:38.535Z,36.10
2019-03-21T08:43:08.442Z,35.60
2019-03-21T08:45:38.409Z,35.90
2019-03-21T08:48:08.486Z,35.00
2019-03-21T08:50:39.326Z,34.40
2019-03-21T08:53:10.055Z,34.20
2019-03-21T08:55:41.849Z,34.50
2019-03-21T08:58:12.028Z,36.20
2019-03-21T09:00:42.329Z,36.00
2019-03-21T09:03:12.967Z,35.70
2019-03-21T09:05:42.750Z,34.80
2019-03-21T09:08:12.887Z,34.70
2019-03-21T09:10:44.202Z,35.80
2019-03-21T09:13:14.181Z,36.20
2019-03-21T09:15:44.816Z,36.10
2019-03-21T09:18:15.004Z,34.10
2019-03-21T09:20:47.099Z,33.40
2019-03-21T09:23:17.658Z,32.90
2019-03-21T09:25:47.521Z,31.80
2019-03-21T09:28:17.156Z,31.70
2019-03-21T09:30:47.183Z,31.10
2019-03-21T09:33:17.798Z,30.10
2019-03-21T09:35:47.735Z,28.10
2019-03-21T09:38:17.917Z,27.60
2019-03-21T09:40:47.911Z,25.60
2019-03-21T09:43:19.153Z,23.30
2019-03-21T09:45:48.885Z,21.40
2019-03-21T09:48:19.151Z,19.20
2019-03-21T09:50:49.280Z,18.70
2019-03-21T09:53:18.763Z,18.30
2019-03-21T09:55:48.733Z,17.50
2019-03-21T09:58:21.684Z,17.50
2019-03-21T10:00:51.652Z,19.30
2019-03-21T10:03:21.994Z,19.90
2019-03-21T10:05:56.512Z,19.80
2019-03-21T10:08:27.154Z,19.10
2019-03-21T10:11:00.581Z,20.00
2019-03-21T10:13:30.212Z,20.10
2019-03-21T10:16:00.340Z,20.70
2019-03-21T10:18:30.875Z,20.00
2019-03-21T10:21:01.014Z,20.00
2019-03-21T10:23:31.854Z,19.70
2019-03-21T10:26:01.944Z,20.70
2019-03-21T10:28:33.246Z,20.70
2019-03-21T10:31:04.563Z,21.80
2019-03-21T10:33:34.920Z,21.10
2019-03-21T10:36:05.810Z,22.90
2019-03-21T10:38:35.386Z,23.00
2019-03-21T10:41:05.460Z,25.30
2019-03-21T10:43:34.247Z,27.30
2019-03-21T10:46:04.368Z,27.40
2019-03-21T10:48:35.027Z,29.40
2019-03-21T10:51:11.512Z,29.50
2019-03-21T10:53:43.788Z,29.80
2019-03-21T10:56:21.959Z,30.30
2019-03-21T10:58:50.239Z,31.00
2019-03-21T11:01:20.216Z,30.90
2019-03-21T11:03:50.361Z,30.70
2019-03-21T11:06:21.283Z,31.70
2019-03-21T11:08:52.226Z,31.60
2019-03-21T11:11:22.191Z,31.70
2019-03-21T11:13:52.590Z,32.50
2019-03-21T11:16:22.717Z,33.80
2019-03-21T11:18:54.983Z,35.10
2019-03-21T11:21:24.590Z,35.70
2019-03-21T11:23:54.777Z,36.30
2019-03-21T11:26:25.270Z,36.30
2019-03-21T11:28:56.465Z,35.00
2019-03-21T11:31:26.476Z,36.20
2019-03-21T11:33:56.445Z,36.70
2019-03-21T11:36:37.853Z,37.00
2019-03-21T11:38:58.951Z,36.60
2019-03-21T11:41:31.145Z,34.30
2019-03-21T11:44:02.547Z,32.90
2019-03-21T11:46:34.594Z,32.50
2019-03-21T11:49:05.305Z,35.20
2019-03-21T11:51:35.871Z,37.50
2019-03-21T11:54:06.200Z,38.70
2019-03-21T11:56:37.234Z,37.70
2019-03-21T11:59:07.204Z,38.60
2019-03-21T12:01:37.215Z,39.00
2019-03-21T12:04:14.453Z,38.60
2019-03-21T12:06:45.418Z,38.60
2019-03-21T12:09:15.560Z,38.30
2019-03-21T12:11:45.733Z,37.50
2019-03-21T12:14:15.824Z,37.50
2019-03-21T12:16:46.652Z,37.30
2019-03-21T12:19:16.519Z,37.20
2019-03-21T12:21:46.880Z,36.80
2019-03-21T12:24:18.520Z,36.40
2019-03-21T12:26:48.471Z,36.40
2019-03-21T12:29:20.537Z,36.40
2019-03-21T12:31:51.449Z,35.80
2019-03-21T12:34:21.741Z,34.90
2019-03-21T12:36:52.392Z,34.40
2019-03-21T12:39:23.225Z,34.00
2019-03-21T12:41:52.916Z,34.10
2019-03-21T12:44:24.014Z,34.10
2019-03-21T12:46:53.994Z,34.60
2019-03-21T12:49:23.789Z,34.30
2019-03-21T12:51:54.077Z,34.50
2019-03-21T12:54:24.433Z,34.40
2019-03-21T12:56:54.398Z,35.00
2019-03-21T12:59:24.379Z,35.60
2019-03-21T13:01:54.957Z,34.10
2019-03-21T13:04:25.927Z,33.70
2019-03-21T13:06:55.815Z,33.20
2019-03-21T13:09:25.814Z,32.80
2019-03-21T13:11:55.707Z,32.50
2019-03-21T13:14:25.667Z,32.30
2019-03-21T13:16:56.915Z,32.20
2019-03-21T13:19:28.483Z,32.70
2019-03-21T13:21:59.340Z,32.30
2019-03-21T13:24:28.915Z,30.70
2019-03-21T13:27:00.325Z,31.20
2019-03-21T13:29:30.865Z,31.70
2019-03-21T13:32:00.801Z,31.00
2019-03-21T13:34:32.698Z,31.00
2019-03-21T13:37:02.806Z,31.80
2019-03-21T13:39:35.675Z,31.50
2019-03-21T13:42:05.781Z,30.80
2019-03-21T13:44:36.505Z,31.00
2019-03-21T13:47:06.085Z,31.20
2019-03-21T13:49:36.012Z,31.30
2019-03-21T13:52:06.202Z,31.90
2019-03-21T13:54:37.156Z,31.80
2019-03-21T13:57:07.977Z,32.40
2019-03-21T13:59:36.421Z,32.30
2019-03-21T14:02:05.522Z,32.10
2019-03-21T14:04:36.534Z,32.10
2019-03-21T14:07:08.811Z,31.40
2019-03-21T14:09:39.750Z,31.70
2019-03-21T14:12:09.645Z,31.90
2019-03-21T14:14:40.692Z,31.40
2019-03-21T14:17:21.582Z,30.80
2019-03-21T14:19:43.021Z,31.00
2019-03-21T14:22:14.610Z,31.40
2019-03-21T14:24:44.356Z,31.70
2019-03-21T14:27:14.583Z,32.80
2019-03-21T14:29:44.175Z,32.90
2019-03-21T14:32:14.471Z,32.50
2019-03-21T14:34:46.091Z,32.30
2019-03-21T14:37:17.196Z,32.60
2019-03-21T14:39:48.312Z,32.60
2019-03-21T14:42:18.252Z,32.00
2019-03-21T14:44:49.041Z,32.30
2019-03-21T14:47:17.771Z,32.20
2019-03-21T14:49:46.936Z,32.30
2019-03-21T14:52:15.473Z,30.90
2019-03-21T14:54:44.738Z,30.70
2019-03-21T14:57:13.940Z,31.20
2019-03-21T14:59:43.819Z,31.20
2019-03-21T15:02:14.108Z,31.20
2019-03-21T15:04:42.644Z,31.40
2019-03-21T15:07:11.110Z,31.10
2019-03-21T15:09:40.849Z,31.10
2019-03-21T15:12:10.192Z,30.70
2019-03-21T15:14:39.771Z,30.10
2019-03-21T15:17:08.363Z,30.40
2019-03-21T15:19:39.154Z,30.80
2019-03-21T15:22:07.881Z,30.90
2019-03-21T15:24:37.082Z,30.90
2019-03-21T15:27:06.612Z,30.50
2019-03-21T15:29:36.047Z,30.40
2019-03-21T15:32:05.931Z,30.40
2019-03-21T15:34:34.379Z,30.20
2019-03-21T15:37:03.911Z,30.10
2019-03-21T15:39:33.227Z,30.00
2019-03-21T15:42:02.727Z,30.10
2019-03-21T15:44:31.695Z,30.10
2019-03-21T15:47:00.109Z,30.00
2019-03-21T15:49:30.702Z,30.00
2019-03-21T15:51:59.885Z,30.20
2019-03-21T15:54:30.713Z,30.90
2019-03-21T15:56:59.820Z,30.90
2019-03-21T15:59:28.612Z,31.20
2019-03-21T16:01:57.378Z,31.30
2019-03-21T16:04:25.746Z,31.00
2019-03-21T16:06:54.566Z,31.20
2019-03-21T16:09:24.216Z,30.90
2019-03-21T16:11:53.781Z,30.80
2019-03-21T16:14:23.226Z,30.90
2019-03-21T16:16:51.629Z,31.60
2019-03-21T16:19:20.349Z,31.60
2019-03-21T16:21:49.768Z,31.80
2019-03-21T16:24:20.795Z,32.00
2019-03-21T16:27:01.567Z,32.10
2019-03-21T16:29:46.517Z,32.10
2019-03-21T16:32:26.340Z,32.20
2019-03-21T16:34:56.677Z,32.00
2019-03-21T16:37:33.808Z,32.00
2019-03-21T16:40:08.156Z,32.30
2019-03-21T16:43:07.272Z,32.50
2019-03-21T16:45:43.938Z,33.10
2019-03-21T16:48:16.362Z,33.50
2019-03-21T16:50:51.188Z,33.60
2019-03-21T16:53:34.442Z,33.50
2019-03-21T16:56:12.702Z,33.60
2019-03-21T16:58:50.508Z,33.90
2019-03-21T17:01:28.351Z,34.20
2019-03-21T17:04:07.319Z,34.20
2019-03-21T17:07:02.109Z,34.50
2019-03-21T17:09:39.530Z,34.50
2019-03-21T17:12:17.403Z,34.90
2019-03-21T17:15:20.756Z,35.20
2019-03-21T17:18:12.542Z,35.20
2019-03-21T17:20:57.341Z,35.30
2019-03-21T17:23:33.245Z,35.30
2019-03-21T17:26:08.918Z,35.60
2019-03-21T17:28:51.127Z,35.70
2019-03-21T17:31:31.503Z,35.90
2019-03-21T17:34:24.744Z,36.10
2019-03-21T17:37:05.547Z,36.50
2019-03-21T17:39:36.334Z,36.70
2019-03-21T17:42:09.202Z,36.90
2019-03-21T17:44:41.091Z,37.00
2019-03-21T17:47:25.611Z,37.30
2019-03-21T17:49:57.234Z,37.50
2019-03-21T17:52:33.013Z,37.60
2019-03-21T17:55:05.859Z,37.40
2019-03-21T17:57:36.622Z,37.90
2019-03-21T18:00:15.125Z,38.10
2019-03-21T18:02:47.191Z,38.30
2019-03-21T18:05:17.303Z,38.70
2019-03-21T18:07:58.543Z,38.80
2019-03-21T18:10:31.762Z,38.70
2019-03-21T18:13:26.338Z,38.80
2019-03-21T18:15:58.775Z,38.90
2019-03-21T18:18:34.907Z,38.80
2019-03-21T18:21:59.988Z,39.00
2019-03-21T18:24:53.961Z,39.30
2019-03-21T18:27:55.444Z,39.60
2019-03-21T18:30:47.254Z,39.70
2019-03-21T18:34:03.471Z,39.70
2019-03-21T18:59:53.252Z,41.60
2019-03-21T19:07:12.795Z,41.90
2019-03-21T19:09:54.350Z,41.90
2019-03-21T19:12:26.855Z,41.90
2019-03-21T19:15:02.630Z,41.80
2019-03-21T19:17:40.299Z,41.50
2019-03-21T19:20:58.862Z,42.30
2019-03-21T19:23:53.251Z,42.40
2019-03-21T19:30:11.270Z,42.10
2019-03-21T19:32:51.938Z,41.90
2019-03-21T19:35:24.734Z,41.70
2019-03-21T19:37:58.176Z,41.30
2019-03-21T19:40:28.706Z,41.30
2019-03-21T19:42:59.200Z,41.20
2019-03-21T19:45:29.251Z,41.40
2019-03-21T19:48:10.617Z,41.00
2019-03-21T19:50:42.092Z,41.10
2019-03-21T19:53:16.127Z,41.70
2019-03-21T19:56:10.243Z,41.70
2019-03-21T19:58:54.091Z,41.20
2019-03-21T20:01:36.122Z,41.30
2019-03-21T20:04:22.552Z,40.90
2019-03-21T20:06:58.589Z,40.60
2019-03-21T20:09:30.249Z,40.20
2019-03-21T20:12:06.153Z,40.70
2019-03-21T20:14:36.202Z,40.90
2019-03-21T20:17:11.233Z,40.90
2019-03-21T20:19:45.636Z,41.50
2019-03-21T20:22:26.839Z,41.60
2019-03-21T20:24:57.500Z,41.60
2019-03-21T20:27:32.057Z,42.00
2019-03-21T20:30:07.397Z,42.00
2019-03-21T20:32:50.007Z,42.30
2019-03-21T20:43:26.909Z,40.80
2019-03-21T20:45:58.158Z,40.90
2019-03-21T20:48:30.204Z,40.50
2019-03-21T20:51:00.743Z,40.30
2019-03-21T20:53:31.483Z,40.10
2019-03-21T20:56:01.957Z,40.60
2019-03-21T20:58:37.819Z,40.80
2019-03-21T21:01:07.554Z,40.80
2019-03-21T21:03:37.423Z,41.00
2019-03-21T21:06:13.089Z,40.90
2019-03-21T21:08:46.835Z,41.10
2019-03-21T21:11:17.171Z,41.50
2019-03-21T21:13:46.969Z,41.60
2019-03-21T21:16:17.649Z,42.00
2019-03-21T21:18:49.385Z,42.50
2019-03-21T21:21:27.678Z,42.90
2019-03-21T21:23:57.886Z,43.20
2019-03-21T21:26:38.262Z,43.00
2019-03-21T21:29:11.475Z,43.20
2019-03-21T21:31:42.597Z,43.10
2019-03-21T21:34:14.571Z,42.50
2019-03-21T21:36:47.509Z,41.80
2019-03-21T21:39:17.231Z,41.50
2019-03-21T21:41:48.840Z,41.50
2019-03-21T21:44:18.927Z,41.90
2019-03-21T21:46:50.975Z,42.50
2019-03-21T21:49:23.140Z,42.00
2019-03-21T21:52:09.915Z,42.70
2019-03-21T21:55:32.613Z,43.00
2019-03-21T22:02:40.327Z,44.00
2019-03-21T22:08:49.204Z,43.80
2019-03-21T22:11:23.998Z,43.00
2019-03-21T22:14:12.523Z,42.10
2019-03-21T22:16:44.841Z,42.80
2019-03-21T22:19:35.518Z,42.70
2019-03-21T22:22:11.080Z,42.20
2019-03-21T22:24:45.749Z,42.60
2019-03-21T22:27:24.179Z,42.70
2019-03-21T22:29:56.175Z,43.20
2019-03-21T22:32:49.176Z,44.00
2019-03-21T22:35:23.390Z,44.40
2019-03-21T22:37:59.119Z,44.70
2019-03-21T22:40:30.520Z,44.70
2019-03-21T22:43:02.972Z,44.10
2019-03-21T22:45:34.960Z,44.70
2019-03-21T22:48:06.274Z,44.80
2019-03-21T22:50:43.033Z,44.80
2019-03-21T22:53:19.649Z,45.00
2019-03-21T22:55:57.900Z,44.90
2019-03-21T22:58:32.024Z,45.30
2019-03-21T23:01:05.109Z,46.00
2019-03-21T23:03:49.845Z,46.40
2019-03-21T23:06:18.464Z,46.80
2019-03-21T23:08:47.606Z,46.60
2019-03-21T23:11:17.363Z,47.00
2019-03-21T23:13:49.027Z,47.30
2019-03-21T23:16:20.191Z,47.80
2019-03-21T23:18:48.841Z,48.10
2019-03-21T23:21:22.273Z,48.20
2019-03-21T23:23:51.832Z,47.90
2019-03-21T23:26:20.771Z,48.20
2019-03-21T23:28:50.107Z,48.20
2019-03-21T23:31:18.972Z,48.50
2019-03-21T23:33:48.100Z,48.60
2019-03-21T23:36:16.519Z,48.70
2019-03-21T23:38:45.729Z,49.10
2019-03-21T23:41:14.620Z,49.20
2019-03-21T23:43:46.106Z,49.20
2019-03-21T23:46:43.371Z,49.70
2019-03-21T23:49:23.222Z,50.00
2019-03-21T23:52:43.796Z,50.40
2019-03-21T23:55:16.968Z,49.90
2019-03-21T23:57:47.929Z,50.10
